| time (UTC) | temp C | wind direction | speed KPH | gust KPH | rain 1hr cm | rain 24hr cm | rain mn cm | humidity % | barometer mb |
| 20260506221520 | 12 | 242 | 0.0 | 19.3 | 0.03 | 0.46 | 0.46 | 94 | 1007.6 |
| 20260506220031 | 13 | 218 | 16.1 | 24.1 | 0.10 | 0.46 | 0.46 | 94 | 1007.7 |
| 20260506214525 | 13 | 209 | 3.2 | 22.5 | 0.18 | 0.46 | 0.46 | 93 | 1007.7 |
| 20260506213012 | 13 | 226 | 1.6 | 22.5 | 0.18 | 0.43 | 0.43 | 93 | 1007.6 |
| 20260506211523 | 13 | 243 | 1.6 | 25.7 | 0.20 | 0.43 | 0.43 | 93 | 1007.8 |
| 20260506210032 | 13 | 213 | 0.0 | 29.0 | 0.13 | 0.36 | 0.36 | 93 | 1008.0 |
| 20260506204541 | 13 | 200 | 1.6 | 19.3 | 0.05 | 0.28 | 0.28 | 93 | 1008.2 |
| 20260506203029 | 13 | 202 | 3.2 | 20.9 | 0.03 | 0.25 | 0.25 | 92 | 1008.1 |
| 20260506201514 | 13 | 234 | 11.3 | 22.5 | 0.00 | 0.23 | 0.23 | 92 | 1008.4 |
| 20260506200025 | 13 | 194 | 6.4 | 27.4 | 0.03 | 0.23 | 0.23 | 92 | 1008.2 |
| 20260506194507 | 13 | 227 | 12.9 | 27.4 | 0.08 | 0.23 | 0.23 | 92 | 1008.4 |
| 20260506193005 | 13 | 212 | 4.8 | 25.7 | 0.15 | 0.23 | 0.23 | 92 | 1008.6 |
| 20260506191513 | 13 | 238 | 11.3 | 32.2 | 0.18 | 0.23 | 0.23 | 92 | 1008.8 |
| 20260506190015 | 13 | 235 | 9.7 | 32.2 | 0.18 | 0.20 | 0.20 | 91 | 1008.9 |
| 20260506183006 | 13 | 208 | 12.9 | 24.1 | 0.08 | 0.08 | 0.08 | 90 | 1009.0 |
| 20260506181519 | 14 | 224 | 4.8 | 20.9 | 0.05 | 0.05 | 0.05 | 89 | 1009.4 |
| 20260506180030 | 14 | 249 | 17.7 | 27.4 | 0.03 | 0.03 | 0.03 | 87 | 1010.0 |
| 20260506174520 | 15 | 284 | 12.9 | 32.2 | 0.00 | 0.00 | 0.00 | 83 | 1010.1 |
| 20260506173023 | 16 | 253 | 3.2 | 20.9 | 0.00 | 0.00 | 0.00 | 79 | 1010.4 |
| 20260506171510 | 16 | 231 | 8.0 | 33.8 | 0.00 | 0.00 | 0.00 | 78 | 1010.3 |
| 20260506170014 | 16 | 182 | 17.7 | 32.2 | 0.00 | 0.00 | 0.00 | 77 | 1010.6 |
| 20260506164520 | 16 | 238 | 9.7 | 24.1 | 0.00 | 0.00 | 0.00 | 76 | 1010.6 |
| 20260506163021 | 17 | 236 | 12.9 | 38.6 | 0.00 | 0.00 | 0.00 | 74 | 1010.5 |
| 20260506161534 | 17 | 202 | 8.0 | 38.6 | 0.00 | 0.00 | 0.00 | 72 | 1010.7 |
| 20260506160041 | 17 | 234 | 8.0 | 33.8 | 0.00 | 0.00 | 0.00 | 73 | 1011.0 |
| 20260506154513 | 17 | 199 | 11.3 | 35.4 | 0.00 | 0.00 | 0.00 | 73 | 1011.0 |
| 20260506153020 | 17 | 237 | 16.1 | 29.0 | 0.00 | 0.00 | 0.00 | 72 | 1010.9 |
| 20260506151533 | 18 | 226 | 16.1 | 37.0 | 0.00 | 0.00 | 0.00 | 69 | 1010.9 |
| 20260506150022 | 18 | 229 | 12.9 | 32.2 | 0.00 | 0.00 | 0.00 | 69 | 1011.0 |
| 20260506144513 | 18 | 217 | 12.9 | 37.0 | 0.00 | 0.00 | 0.00 | 70 | 1011.1 |
| 20260506143036 | 18 | 232 | 17.7 | 35.4 | 0.00 | 0.00 | 0.00 | 71 | 1011.3 |
| 20260506141505 | 18 | 247 | 17.7 | 33.8 | 0.00 | 0.00 | 0.00 | 71 | 1011.3 |
| 20260506140010 | 18 | 240 | 12.9 | 30.6 | 0.00 | 0.00 | 0.00 | 72 | 1011.3 |
| 20260506134511 | 17 | 194 | 8.0 | 20.9 | 0.00 | 0.00 | 0.00 | 74 | 1011.0 |
| 20260506133021 | 17 | 274 | 6.4 | 27.4 | 0.00 | 0.00 | 0.00 | 73 | 1011.0 |
| 20260506131528 | 17 | 223 | 9.7 | 22.5 | 0.00 | 0.00 | 0.00 | 73 | 1011.0 |
| 20260506124512 | 17 | 197 | 8.0 | 22.5 | 0.00 | 0.00 | 0.00 | 75 | 1011.6 |
| 20260506123017 | 16 | 223 | 1.6 | 25.7 | 0.00 | 0.00 | 0.00 | 76 | 1011.7 |
| 20260506120026 | 15 | 242 | 6.4 | 22.5 | 0.00 | 0.00 | 0.00 | 79 | 1011.7 |
| 20260506114508 | 15 | 207 | 3.2 | 14.5 | 0.00 | 0.00 | 0.00 | 82 | 1011.8 |
| 20260506113014 | 14 | 215 | 0.0 | 16.1 | 0.00 | 0.00 | 0.00 | 85 | 1011.8 |
| 20260506111518 | 13 | 209 | 4.8 | 19.3 | 0.00 | 0.00 | 0.00 | 86 | 1011.7 |
| 20260506110035 | 13 | 175 | 3.2 | 16.1 | 0.00 | 0.00 | 0.00 | 88 | 1011.9 |
| 20260506103016 | 13 | 221 | 3.2 | 14.5 | 0.00 | 0.00 | 0.00 | 89 | 1011.8 |
| 20260506101531 | 13 | 210 | 4.8 | 19.3 | 0.00 | 0.00 | 0.00 | 89 | 1011.7 |
| 20260506100020 | 12 | 211 | 4.8 | 14.5 | 0.00 | 0.00 | 0.00 | 88 | 1011.5 |
| 20260506094522 | 12 | 190 | 3.2 | 16.1 | 0.00 | 0.00 | 0.00 | 88 | 1011.5 |
| 20260506093008 | 12 | 222 | 1.6 | 19.3 | 0.00 | 0.00 | 0.00 | 87 | 1011.7 |
| 20260506090021 | 13 | 207 | 0.0 | 20.9 | 0.00 | 0.00 | 0.00 | 86 | 1011.9 |
| 20260506084528 | 13 | 231 | 4.8 | 19.3 | 0.00 | 0.00 | 0.00 | 86 | 1011.8 |
| 20260506083024 | 13 | 235 | 4.8 | 20.9 | 0.00 | 0.00 | 0.00 | 85 | 1011.9 |
| 20260506081510 | 13 | 219 | 14.5 | 27.4 | 0.00 | 0.00 | 0.00 | 85 | 1011.9 |
| 20260506073025 | 13 | 238 | 4.8 | 33.8 | 0.00 | 0.00 | 0.00 | 84 | 1012.0 |
| 20260506071527 | 13 | 223 | 4.8 | 17.7 | 0.00 | 0.00 | 0.00 | 83 | 1012.1 |
| 20260506061528 | 13 | 233 | 4.8 | 22.5 | 0.00 | 0.00 | 0.00 | 81 | 1011.9 |
| 20260506044521 | 14 | 215 | 6.4 | 35.4 | 0.00 | 0.00 | 0.00 | 79 | 1012.4 |
| 20260506041508 | 14 | 250 | 11.3 | 25.7 | 0.00 | 0.00 | 0.00 | 78 | 1012.6 |
| 20260506040009 | 15 | 207 | 12.9 | 29.0 | 0.00 | 0.00 | 0.00 | 77 | 1012.7 |
| 20260506034512 | 15 | 236 | 8.0 | 22.5 | 0.00 | 0.00 | 0.00 | 76 | 1012.7 |
| 20260506033021 | 15 | 248 | 11.3 | 24.1 | 0.00 | 0.00 | 0.00 | 75 | 1012.6 |
| 20260506031512 | 15 | 242 | 12.9 | 27.4 | 0.00 | 0.00 | 0.00 | 74 | 1012.5 |
| 20260506030008 | 15 | 237 | 8.0 | 29.0 | 0.00 | 0.00 | 0.00 | 73 | 1012.4 |
| 20260506024513 | 15 | 231 | 20.9 | 38.6 | 0.00 | 0.00 | 0.00 | 72 | 1012.3 |
| 20260506023018 | 15 | 248 | 12.9 | 25.7 | 0.00 | 0.00 | 0.00 | 72 | 1012.4 |
| 20260506021521 | 15 | 218 | 16.1 | 29.0 | 0.00 | 0.00 | 0.00 | 71 | 1012.2 |
| 20260506020004 | 15 | 250 | 17.7 | 38.6 | 0.00 | 0.00 | 0.00 | 71 | 1012.1 |
| 20260506014517 | 15 | 241 | 16.1 | 40.2 | 0.00 | 0.00 | 0.00 | 71 | 1011.9 |
| 20260506013025 | 15 | 205 | 14.5 | 40.2 | 0.00 | 0.00 | 0.00 | 71 | 1011.8 |
| 20260506011517 | 15 | 216 | 14.5 | 33.8 | 0.00 | 0.00 | 0.00 | 70 | 1011.6 |
| 20260506010027 | 16 | 246 | 16.1 | 41.8 | 0.00 | 0.00 | 0.00 | 69 | 1011.4 |
| 20260506004517 | 15 | 217 | 16.1 | 37.0 | 0.00 | 0.00 | 0.00 | 70 | 1011.3 |
| 20260506003012 | 15 | 226 | 8.0 | 25.7 | 0.00 | 0.00 | 0.00 | 69 | 1011.2 |
| 20260506001518 | 15 | 245 | 8.0 | 25.7 | 0.00 | 0.00 | 0.00 | 69 | 1011.0 |
| 20260506000023 | 15 | 223 | 1.6 | 27.4 | 0.00 | 0.00 | 0.00 | 69 | 1010.8 |
| 20260505234528 | 15 | 248 | 14.5 | 24.1 | 0.00 | 0.00 | 0.00 | 69 | 1010.6 |
| 20260505233010 | 16 | 171 | 1.6 | 24.1 | 0.00 | 0.00 | 0.00 | 69 | 1010.2 |
| 20260505231516 | 16 | 202 | 6.4 | 29.0 | 0.00 | 0.00 | 0.00 | 67 | 1009.6 |
| 20260505224534 | 17 | 230 | 9.7 | 29.0 | 0.00 | 0.00 | 0.00 | 64 | 1010.2 |
| 20260505223009 | 17 | 257 | 12.9 | 38.6 | 0.00 | 0.00 | 0.00 | 63 | 1010.2 |